Time;durP1;ratioP1;P1;durP2;ratioP2;P2;SDS_P1;SDS_P2;PMS_P1;PMS_P2;Temp;Humidity;BMP_temperature;BMP_pressure;BME280_temperature;BME280_humidity;BME280_pressure;Samples;Min_cycle;Max_cycle;Signal;HPM_P1;HPM_P2
2023/09/03 00:00:50;;;;;;;;;;;17.00;76.00;;;;;;5008067;28;19910;-77
2023/09/03 00:03:16;;;;;;;;;;;17.10;75.90;;;;;;4991825;28;19972;-77
2023/09/03 00:05:49;;;;;;;;;;;17.10;75.80;;;;;;4992066;28;20000;-77
2023/09/03 00:08:14;;;;;;;;;;;17.20;75.80;;;;;;5009386;28;20787;-77
2023/09/03 00:10:40;;;;;;;;;;;17.20;75.70;;;;;;5008075;28;19913;-77
2023/09/03 00:13:05;;;;;;;;;;;17.20;75.60;;;;;;4991792;28;19929;-77
2023/09/03 00:15:31;;;;;;;;;;;17.20;75.60;;;;;;4991905;28;20446;-77
2023/09/03 00:17:57;;;;;;;;;;;17.30;75.90;;;;;;4991715;28;20365;-77
2023/09/03 00:20:23;;;;;;;;;;;17.20;75.60;;;;;;5009160;28;19917;-77
2023/09/03 00:22:48;;;;;;;;;;;17.20;75.60;;;;;;4991734;28;19920;-77
2023/09/03 00:25:14;;;;;;;;;;;17.20;76.00;;;;;;4991847;28;19922;-77
2023/09/03 00:27:39;;;;;;;;;;;17.20;75.50;;;;;;4991585;28;19920;-77
2023/09/03 00:30:05;;;;;;;;;;;17.20;75.50;;;;;;4991416;28;19913;-77
2023/09/03 00:32:31;;;;;;;;;;;17.20;75.50;;;;;;4991917;28;20044;-77
2023/09/03 00:34:56;;;;;;;;;;;17.10;75.40;;;;;;5009398;28;19959;-76
2023/09/03 00:37:22;;;;;;;;;;;17.10;75.40;;;;;;4991572;28;19924;-76
2023/09/03 00:39:47;;;;;;;;;;;17.10;75.40;;;;;;5009095;28;19917;-76
2023/09/03 00:42:13;;;;;;;;;;;17.10;75.50;;;;;;4991956;28;19967;-77
2023/09/03 00:44:38;;;;;;;;;;;17.10;75.50;;;;;;5009312;28;20302;-77
2023/09/03 00:47:04;;;;;;;;;;;17.00;75.40;;;;;;5009084;28;19922;-78
2023/09/03 00:49:30;;;;;;;;;;;17.00;75.40;;;;;;4991147;28;19923;-77
2023/09/03 00:51:55;;;;;;;;;;;17.00;75.40;;;;;;4991509;28;19919;-77
2023/09/03 00:54:22;;;;;;;;;;;17.00;75.50;;;;;;4991397;28;20289;-77
2023/09/03 00:56:49;;;;;;;;;;;17.00;75.40;;;;;;5007808;28;20265;-77
2023/09/03 00:59:15;;;;;;;;;;;16.90;75.40;;;;;;5008665;28;20308;-77
2023/09/03 01:01:41;;;;;;;;;;;16.90;75.50;;;;;;4991173;28;19971;-77
2023/09/03 01:04:07;;;;;;;;;;;16.90;75.50;;;;;;4991358;28;19918;-77
2023/09/03 01:06:33;;;;;;;;;;;16.90;75.50;;;;;;5008648;28;19913;-77
2023/09/03 01:08:58;;;;;;;;;;;16.90;75.50;;;;;;4990926;28;19925;-77
2023/09/03 01:11:31;;;;;;;;;;;16.80;75.40;;;;;;5008509;28;19913;-77
2023/09/03 01:13:57;;;;;;;;;;;16.80;75.50;;;;;;5007457;28;19921;-77
2023/09/03 01:16:34;;;;;;;;;;;16.80;75.50;;;;;;5008829;28;19910;-78
2023/09/03 01:19:08;;;;;;;;;;;16.80;75.50;;;;;;5008571;28;19909;-78
2023/09/03 01:21:34;;;;;;;;;;;16.80;75.40;;;;;;5008594;28;19909;-77
2023/09/03 01:24:11;;;;;;;;;;;16.70;75.50;;;;;;5008616;28;19983;-77
2023/09/03 01:26:57;;;;;;;;;;;16.70;75.50;;;;;;5008718;28;20388;-77
2023/09/03 01:29:23;;;;;;;;;;;16.70;75.40;;;;;;4990239;28;19913;-77
2023/09/03 01:31:49;;;;;;;;;;;16.70;75.40;;;;;;4990859;28;19913;-77
2023/09/03 01:34:15;;;;;;;;;;;16.60;75.40;;;;;;4989989;28;20035;-77
2023/09/03 01:36:41;;;;;;;;;;;16.60;75.40;;;;;;4990828;28;19917;-77
2023/09/03 01:39:07;;;;;;;;;;;16.60;75.40;;;;;;5008195;28;19922;-76
2023/09/03 01:41:33;;;;;;;;;;;16.60;75.40;;;;;;4990658;28;19956;-77
2023/09/03 01:43:59;;;;;;;;;;;16.50;75.40;;;;;;5008199;28;19909;-77
2023/09/03 01:46:45;;;;;;;;;;;16.50;75.40;;;;;;5006982;28;19917;-77
2023/09/03 01:49:33;;;;;;;;;;;16.50;75.40;;;;;;4989937;28;19921;-77
2023/09/03 01:52:25;;;;;;;;;;;16.50;75.50;;;;;;5006958;28;20000;-77
2023/09/03 01:54:51;;;;;;;;;;;16.50;75.50;;;;;;4975076;28;19910;-77
2023/09/03 01:57:23;;;;;;;;;;;16.40;75.40;;;;;;5007809;28;19909;-77
2023/09/03 01:59:50;;;;;;;;;;;16.40;75.40;;;;;;4990535;28;20000;-77
2023/09/03 02:02:16;;;;;;;;;;;16.40;75.50;;;;;;5006879;28;19909;-77
2023/09/03 02:04:42;;;;;;;;;;;16.40;75.50;;;;;;5007756;28;19913;-77
2023/09/03 02:07:08;;;;;;;;;;;16.40;75.50;;;;;;5008049;28;20029;-77
2023/09/03 02:09:33;;;;;;;;;;;16.40;75.50;;;;;;5008010;28;20366;-77
2023/09/03 02:11:59;;;;;;;;;;;16.40;75.50;;;;;;4990666;28;19910;-77
2023/09/03 02:14:26;;;;;;;;;;;16.40;75.50;;;;;;5007920;28;19939;-77
2023/09/03 02:16:52;;;;;;;;;;;16.30;75.60;;;;;;4990456;28;20320;-77
2023/09/03 02:19:17;;;;;;;;;;;16.30;75.50;;;;;;5008180;28;19914;-77
2023/09/03 02:21:43;;;;;;;;;;;16.30;75.60;;;;;;4990375;28;19965;-77
2023/09/03 02:24:08;;;;;;;;;;;16.30;75.60;;;;;;4990456;28;20409;-77
2023/09/03 02:26:45;;;;;;;;;;;16.30;75.60;;;;;;4990543;28;19920;-77
2023/09/03 02:29:11;;;;;;;;;;;16.20;75.50;;;;;;4990563;28;19917;-77
2023/09/03 02:31:37;;;;;;;;;;;16.20;75.50;;;;;;5007965;28;19975;-77
2023/09/03 02:34:03;;;;;;;;;;;16.20;75.50;;;;;;5006713;28;20000;-77
2023/09/03 02:36:30;;;;;;;;;;;16.20;75.50;;;;;;4990204;28;20301;-77
2023/09/03 02:39:03;;;;;;;;;;;16.20;75.50;;;;;;5008089;28;19928;-76
2023/09/03 02:41:31;;;;;;;;;;;16.10;75.50;;;;;;5007708;28;20547;-77
2023/09/03 02:43:58;;;;;;;;;;;16.10;75.50;;;;;;5006592;28;19909;-77
2023/09/03 02:46:23;;;;;;;;;;;16.10;75.40;;;;;;5011382;28;19951;-77
2023/09/03 02:48:49;;;;;;;;;;;16.10;75.40;;;;;;4993544;28;19941;-77
2023/09/03 02:51:15;;;;;;;;;;;16.00;75.40;;;;;;4993496;28;19909;-77
2023/09/03 02:53:42;;;;;;;;;;;16.00;75.40;;;;;;4993356;28;19976;-77
2023/09/03 02:56:08;;;;;;;;;;;16.00;75.40;;;;;;5011382;28;19917;-77
2023/09/03 02:58:34;;;;;;;;;;;16.00;75.40;;;;;;4993463;28;19913;-77
2023/09/03 03:01:20;;;;;;;;;;;16.00;76.00;;;;;;5009927;28;20366;-77
2023/09/03 03:03:46;;;;;;;;;;;16.00;75.50;;;;;;4993466;28;20003;-77
2023/09/03 03:06:12;;;;;;;;;;;15.90;75.40;;;;;;4993466;28;20009;-77
2023/09/03 03:08:37;;;;;;;;;;;15.90;75.40;;;;;;5009729;28;20008;-77
2023/09/03 03:11:07;;;;;;;;;;;15.90;75.50;;;;;;5010947;28;19914;-77
2023/09/03 03:13:32;;;;;;;;;;;15.80;75.40;;;;;;4993211;28;19930;-76
2023/09/03 03:16:03;;;;;;;;;;;15.80;75.50;;;;;;4993276;28;20255;-76
2023/09/03 03:18:28;;;;;;;;;;;15.80;75.50;;;;;;5010582;28;19914;-76
2023/09/03 03:21:03;;;;;;;;;;;15.80;75.70;;;;;;4993251;28;20427;-77
2023/09/03 03:23:28;;;;;;;;;;;15.80;75.50;;;;;;5010955;28;19914;-77
2023/09/03 03:25:54;;;;;;;;;;;15.80;75.50;;;;;;4993195;28;20259;-77
2023/09/03 03:28:19;;;;;;;;;;;15.80;75.50;;;;;;5010482;28;19925;-77
2023/09/03 03:30:45;;;;;;;;;;;15.80;75.40;;;;;;4992870;28;20029;-77
2023/09/03 03:33:10;;;;;;;;;;;15.80;75.40;;;;;;4993005;28;19914;-77
2023/09/03 03:35:36;;;;;;;;;;;15.80;75.40;;;;;;4993117;28;19917;-77
2023/09/03 03:38:02;;;;;;;;;;;15.80;75.40;;;;;;4993007;28;19914;-77
2023/09/03 03:40:27;;;;;;;;;;;15.70;75.40;;;;;;5010574;28;20481;-76
2023/09/03 03:42:53;;;;;;;;;;;15.70;75.40;;;;;;4993067;28;19921;-77
2023/09/03 03:45:18;;;;;;;;;;;15.70;75.40;;;;;;4993057;28;19913;-77
2023/09/03 03:47:44;;;;;;;;;;;15.60;75.40;;;;;;4992653;28;19922;-77
2023/09/03 03:50:09;;;;;;;;;;;15.60;75.40;;;;;;4992591;28;19914;-77
2023/09/03 03:52:35;;;;;;;;;;;15.50;75.50;;;;;;4992315;28;19917;-77
2023/09/03 03:55:00;;;;;;;;;;;15.40;75.40;;;;;;5009717;28;20415;-77
2023/09/03 03:57:26;;;;;;;;;;;15.40;75.40;;;;;;4991569;28;19924;-77
2023/09/03 03:59:51;;;;;;;;;;;15.40;75.50;;;;;;4992205;28;19918;-77
2023/09/03 04:02:17;;;;;;;;;;;15.40;75.50;;;;;;5009868;28;19917;-77
2023/09/03 04:04:43;;;;;;;;;;;15.40;75.40;;;;;;5008505;28;19917;-77
2023/09/03 04:07:09;;;;;;;;;;;15.40;75.40;;;;;;4992358;28;19918;-77
2023/09/03 04:09:35;;;;;;;;;;;15.40;75.40;;;;;;4992045;28;19918;-77
2023/09/03 04:12:01;;;;;;;;;;;15.40;75.60;;;;;;4992293;28;19914;-77
2023/09/03 04:14:29;;;;;;;;;;;15.30;75.70;;;;;;5009056;28;21650;-76
2023/09/03 04:16:55;;;;;;;;;;;15.30;75.70;;;;;;5010050;28;19922;-77
2023/09/03 04:19:20;;;;;;;;;;;15.30;75.70;;;;;;5010119;28;20285;-76
2023/09/03 04:21:46;;;;;;;;;;;15.40;75.70;;;;;;4992126;28;19914;-76
2023/09/03 04:24:12;;;;;;;;;;;15.40;75.70;;;;;;4992207;28;20366;-77
2023/09/03 04:26:37;;;;;;;;;;;15.50;75.80;;;;;;4992174;28;19914;-76
2023/09/03 04:29:05;;;;;;;;;;;15.60;75.90;;;;;;5009579;28;19913;-76
2023/09/03 04:31:31;;;;;;;;;;;15.70;75.90;;;;;;5009562;28;19916;-76
2023/09/03 04:33:57;;;;;;;;;;;15.70;75.90;;;;;;4991745;28;20281;-77
2023/09/03 04:36:22;;;;;;;;;;;15.90;75.90;;;;;;4991878;28;19990;-77
2023/09/03 04:38:48;;;;;;;;;;;16.00;75.80;;;;;;4992032;28;19956;-77
2023/09/03 04:41:13;;;;;;;;;;;16.10;75.70;;;;;;4991717;28;19918;-76
2023/09/03 04:43:42;;;;;;;;;;;16.10;75.60;;;;;;5009423;28;19967;-76
2023/09/03 04:46:07;;;;;;;;;;;16.20;75.50;;;;;;5007639;28;19917;-76
2023/09/03 04:48:33;;;;;;;;;;;16.30;75.50;;;;;;4991445;28;19917;-76
2023/09/03 04:51:03;;;;;;;;;;;16.20;75.30;;;;;;4991337;28;19913;-76
2023/09/03 04:53:29;;;;;;;;;;;16.20;75.30;;;;;;5007584;28;20286;-76
2023/09/03 04:55:55;;;;;;;;;;;16.10;75.20;;;;;;4991283;28;20362;-76
2023/09/03 04:58:20;;;;;;;;;;;16.10;75.40;;;;;;5008708;28;20048;-76
2023/09/03 05:00:46;;;;;;;;;;;16.00;75.40;;;;;;5008611;28;19913;-76
2023/09/03 05:03:11;;;;;;;;;;;16.00;75.50;;;;;;4991232;28;20015;-76
2023/09/03 05:05:40;;;;;;;;;;;16.00;75.50;;;;;;4991081;28;19913;-76
2023/09/03 05:08:08;;;;;;;;;;;16.00;75.60;;;;;;4990179;28;19925;-76
2023/09/03 05:10:33;;;;;;;;;;;16.10;75.70;;;;;;4991171;28;19940;-76
2023/09/03 05:12:59;;;;;;;;;;;16.20;75.80;;;;;;5008493;28;20267;-76
2023/09/03 05:15:25;;;;;;;;;;;16.30;75.70;;;;;;4991023;28;19914;-76
2023/09/03 05:17:50;;;;;;;;;;;16.30;75.70;;;;;;5008268;28;19984;-76
2023/09/03 05:20:16;;;;;;;;;;;16.40;75.60;;;;;;4990510;28;19922;-77
2023/09/03 05:22:41;;;;;;;;;;;16.50;75.60;;;;;;4990433;28;20000;-77
2023/09/03 05:25:07;;;;;;;;;;;16.60;75.70;;;;;;4990996;28;19968;-77
2023/09/03 05:27:32;;;;;;;;;;;16.60;75.60;;;;;;4990351;28;19918;-76
2023/09/03 05:29:58;;;;;;;;;;;16.70;75.60;;;;;;4990511;28;19968;-77
2023/09/03 05:32:24;;;;;;;;;;;16.70;75.50;;;;;;5008721;28;19920;-77
2023/09/03 05:34:50;;;;;;;;;;;16.80;75.50;;;;;;5006643;28;20328;-77
2023/09/03 05:37:15;;;;;;;;;;;16.80;75.40;;;;;;4990284;28;19918;-77
2023/09/03 05:39:41;;;;;;;;;;;16.80;75.40;;;;;;4989612;28;19913;-77
2023/09/03 05:42:06;;;;;;;;;;;16.80;75.40;;;;;;4990293;28;19920;-77
2023/09/03 05:44:32;;;;;;;;;;;16.80;75.50;;;;;;4990141;28;19929;-77
2023/09/03 05:46:57;;;;;;;;;;;16.80;75.60;;;;;;4990309;28;19921;-77
2023/09/03 05:49:23;;;;;;;;;;;16.80;75.60;;;;;;5007852;28;20016;-76
2023/09/03 05:51:48;;;;;;;;;;;16.80;75.60;;;;;;4990151;28;19914;-76
2023/09/03 05:54:14;;;;;;;;;;;16.80;75.60;;;;;;4990073;28;19926;-77
2023/09/03 05:56:39;;;;;;;;;;;16.70;75.50;;;;;;4990457;28;19957;-77
2023/09/03 05:59:05;;;;;;;;;;;16.60;75.40;;;;;;4990572;28;19933;-77
2023/09/03 06:01:32;;;;;;;;;;;16.60;75.60;;;;;;4990404;28;20559;-77
2023/09/03 06:04:02;;;;;;;;;;;16.50;75.50;;;;;;5006648;28;19956;-77
2023/09/03 06:06:28;;;;;;;;;;;16.50;75.60;;;;;;5006691;28;19939;-77
2023/09/03 06:08:54;;;;;;;;;;;16.40;75.60;;;;;;5007962;28;20012;-77
2023/09/03 06:11:20;;;;;;;;;;;16.40;75.70;;;;;;4990280;28;20329;-77
2023/09/03 06:13:46;;;;;;;;;;;16.40;75.70;;;;;;5006709;28;19932;-77
2023/09/03 06:16:11;;;;;;;;;;;16.30;75.60;;;;;;5006509;28;20413;-76
2023/09/03 06:18:37;;;;;;;;;;;16.30;75.60;;;;;;4990211;28;20020;-76
2023/09/03 06:21:02;;;;;;;;;;;16.30;75.60;;;;;;4993572;28;19913;-77
2023/09/03 06:23:28;;;;;;;;;;;16.20;75.60;;;;;;4994084;28;19914;-77
2023/09/03 06:25:53;;;;;;;;;;;16.20;75.60;;;;;;5010227;28;19964;-76
2023/09/03 06:28:19;;;;;;;;;;;16.30;75.70;;;;;;5011440;28;19944;-76
2023/09/03 06:30:44;;;;;;;;;;;16.30;75.70;;;;;;4993950;28;19953;-76
2023/09/03 06:33:11;;;;;;;;;;;16.40;75.70;;;;;;4993813;28;20288;-76
2023/09/03 06:35:37;;;;;;;;;;;16.50;75.70;;;;;;4993984;28;19913;-76
2023/09/03 06:38:02;;;;;;;;;;;16.50;75.60;;;;;;4993944;28;19933;-76
2023/09/03 06:40:28;;;;;;;;;;;16.60;75.60;;;;;;4993408;28;20378;-76
2023/09/03 06:42:53;;;;;;;;;;;16.70;75.60;;;;;;4993293;28;20016;-76
2023/09/03 06:45:19;;;;;;;;;;;16.80;75.50;;;;;;4993620;28;19913;-76
2023/09/03 06:47:45;;;;;;;;;;;16.90;75.50;;;;;;5010968;28;19928;-76
2023/09/03 06:50:11;;;;;;;;;;;16.90;75.40;;;;;;5011103;28;20354;-76
2023/09/03 06:52:37;;;;;;;;;;;17.00;75.50;;;;;;5011136;28;19916;-76
2023/09/03 06:55:03;;;;;;;;;;;17.00;76.00;;;;;;5009605;28;20282;-76
2023/09/03 06:57:29;;;;;;;;;;;17.10;75.50;;;;;;5010843;28;20209;-76
2023/09/03 06:59:54;;;;;;;;;;;17.10;75.40;;;;;;4993071;28;19914;-76
2023/09/03 07:02:20;;;;;;;;;;;17.00;75.30;;;;;;4993128;28;20004;-76
2023/09/03 07:04:46;;;;;;;;;;;17.00;75.40;;;;;;4993016;28;19925;-76
2023/09/03 07:07:12;;;;;;;;;;;17.10;75.90;;;;;;4993974;28;19968;-76
2023/09/03 07:09:37;;;;;;;;;;;17.40;76.00;;;;;;4992821;28;19917;-77
2023/09/03 07:12:03;;;;;;;;;;;17.50;75.60;;;;;;5010691;28;20305;-77
2023/09/03 07:14:32;;;;;;;;;;;17.50;75.50;;;;;;5010578;28;20251;-76
2023/09/03 07:16:59;;;;;;;;;;;17.50;75.60;;;;;;5010553;28;19997;-76
2023/09/03 07:19:25;;;;;;;;;;;17.40;75.80;;;;;;4992855;28;19921;-76
2023/09/03 07:21:51;;;;;;;;;;;17.50;76.10;;;;;;4993158;28;19913;-76
2023/09/03 07:24:16;;;;;;;;;;;17.60;76.20;;;;;;4992727;28;20262;-76
2023/09/03 07:26:42;;;;;;;;;;;17.90;76.40;;;;;;4992562;28;19964;-76
2023/09/03 07:29:07;;;;;;;;;;;18.40;76.50;;;;;;4992729;28;19972;-76
2023/09/03 07:31:33;;;;;;;;;;;18.90;75.40;;;;;;4991172;28;19968;-76
2023/09/03 07:34:00;;;;;;;;;;;19.00;75.00;;;;;;4992525;28;20366;-76
2023/09/03 07:36:25;;;;;;;;;;;19.10;75.30;;;;;;4992462;28;20596;-76
2023/09/03 07:38:51;;;;;;;;;;;19.20;75.10;;;;;;4992286;28;19959;-76
2023/09/03 07:41:16;;;;;;;;;;;19.40;75.30;;;;;;4992155;28;19917;-76
2023/09/03 07:43:42;;;;;;;;;;;19.70;75.70;;;;;;4991960;28;20389;-76
2023/09/03 07:46:08;;;;;;;;;;;20.00;75.50;;;;;;5010012;28;20004;-75
2023/09/03 07:48:34;;;;;;;;;;;20.30;76.00;;;;;;5009768;28;19917;-76
2023/09/03 07:50:59;;;;;;;;;;;21.10;77.00;;;;;;4992163;28;20305;-76
2023/09/03 07:53:25;;;;;;;;;;;22.40;77.10;;;;;;4992458;28;20003;-76
2023/09/03 07:55:51;;;;;;;;;;;23.80;76.60;;;;;;5009734;28;19953;-77
2023/09/03 07:58:16;;;;;;;;;;;25.10;76.00;;;;;;4991725;28;19917;-77
2023/09/03 08:00:42;;;;;;;;;;;26.30;75.80;;;;;;5009335;28;20417;-76
2023/09/03 08:03:08;;;;;;;;;;;27.30;75.60;;;;;;4991914;28;20018;-76
2023/09/03 08:05:33;;;;;;;;;;;27.90;75.00;;;;;;5009209;28;19909;-76
2023/09/03 08:07:59;;;;;;;;;;;28.30;74.80;;;;;;4991267;28;20020;-76
2023/09/03 08:10:25;;;;;;;;;;;28.80;74.80;;;;;;5008791;28;19918;-77
2023/09/03 08:12:50;;;;;;;;;;;29.20;74.70;;;;;;4991655;28;19925;-76
2023/09/03 08:15:16;;;;;;;;;;;29.50;74.70;;;;;;4991462;28;20340;-76
2023/09/03 08:17:41;;;;;;;;;;;30.00;75.00;;;;;;5008956;28;19910;-76
2023/09/03 08:20:07;;;;;;;;;;;30.50;75.40;;;;;;5008954;28;19909;-77
2023/09/03 08:22:33;;;;;;;;;;;30.90;75.10;;;;;;5008751;28;19925;-76
2023/09/03 08:24:58;;;;;;;;;;;31.10;75.00;;;;;;5007699;28;20352;-76
2023/09/03 08:27:24;;;;;;;;;;;31.20;75.10;;;;;;5008782;28;20053;-76
2023/09/03 08:29:49;;;;;;;;;;;31.40;75.30;;;;;;5008555;28;20362;-77
2023/09/03 08:32:15;;;;;;;;;;;31.60;75.40;;;;;;5008556;28;19987;-77
2023/09/03 08:34:40;;;;;;;;;;;31.80;75.70;;;;;;5008201;28;19917;-76
2023/09/03 08:37:06;;;;;;;;;;;32.00;75.80;;;;;;4990526;28;19960;-76
2023/09/03 08:39:31;;;;;;;;;;;32.30;75.80;;;;;;4990742;28;19917;-76
2023/09/03 08:41:57;;;;;;;;;;;32.40;75.80;;;;;;5008056;28;20357;-76
2023/09/03 08:44:27;;;;;;;;;;;32.70;76.20;;;;;;5007256;28;20285;-76
2023/09/03 08:46:56;;;;;;;;;;;33.10;76.60;;;;;;5008038;28;20012;-76
2023/09/03 08:49:21;;;;;;;;;;;33.30;76.60;;;;;;5008352;28;20008;-77
2023/09/03 08:51:47;;;;;;;;;;;33.60;76.70;;;;;;4990935;28;19914;-76
2023/09/03 08:54:13;;;;;;;;;;;33.80;76.40;;;;;;4991072;28;19914;-76
2023/09/03 08:56:38;;;;;;;;;;;33.80;76.30;;;;;;4990858;28;20309;-76
2023/09/03 08:59:04;;;;;;;;;;;33.80;76.60;;;;;;5008186;28;19920;-77
2023/09/03 09:01:30;;;;;;;;;;;33.70;76.50;;;;;;5007201;28;19924;-75
2023/09/03 09:03:59;;;;;;;;;;;33.60;76.50;;;;;;5008158;28;19914;-77
2023/09/03 09:06:25;;;;;;;;;;;33.70;76.70;;;;;;5008155;28;19913;-76
2023/09/03 09:08:51;;;;;;;;;;;33.90;76.80;;;;;;5008390;28;19936;-77
2023/09/03 09:11:18;;;;;;;;;;;34.10;76.90;;;;;;5007784;28;20370;-76
2023/09/03 09:13:47;;;;;;;;;;;34.20;76.90;;;;;;5007306;28;19925;-77
2023/09/03 09:16:12;;;;;;;;;;;34.50;77.20;;;;;;5006377;28;19976;-76
2023/09/03 09:18:40;;;;;;;;;;;34.60;76.70;;;;;;4990005;28;19918;-76
2023/09/03 09:21:06;;;;;;;;;;;34.50;76.60;;;;;;5007766;28;20363;-76
2023/09/03 09:23:32;;;;;;;;;;;34.50;77.00;;;;;;4990127;28;19989;-77
2023/09/03 09:25:58;;;;;;;;;;;34.70;77.50;;;;;;5007619;28;19913;-77
2023/09/03 09:28:25;;;;;;;;;;;35.10;78.00;;;;;;4989845;28;20303;-76
2023/09/03 09:30:55;;;;;;;;;;;35.60;78.20;;;;;;4989953;28;19956;-76
2023/09/03 09:33:21;;;;;;;;;;;35.70;78.00;;;;;;5006171;28;19914;-76
2023/09/03 09:35:47;;;;;;;;;;;36.10;78.00;;;;;;5007683;28;19909;-73
2023/09/03 09:38:12;;;;;;;;;;;36.10;77.80;;;;;;5007646;28;20290;-77
2023/09/03 09:40:38;;;;;;;;;;;36.20;78.20;;;;;;5007983;28;20029;-76
2023/09/03 09:43:06;;;;;;;;;;;36.20;77.90;;;;;;5006323;28;20089;-76
2023/09/03 09:45:32;;;;;;;;;;;36.10;77.20;;;;;;5007437;28;20012;-76
2023/09/03 09:48:04;;;;;;;;;;;35.90;77.70;;;;;;5007318;28;20358;-76
2023/09/03 09:50:47;;;;;;;;;;;35.60;77.40;;;;;;4989312;28;19910;-76
2023/09/03 09:53:20;;;;;;;;;;;35.20;77.40;;;;;;4989456;28;20012;-77
2023/09/03 09:55:46;;;;;;;;;;;34.50;77.00;;;;;;5008803;28;20263;-76
2023/09/03 09:58:12;;;;;;;;;;;33.40;76.80;;;;;;4993252;28;19983;-75
2023/09/03 10:00:39;;;;;;;;;;;32.50;77.40;;;;;;4993580;28;20261;-76
2023/09/03 10:03:05;;;;;;;;;;;32.10;78.60;;;;;;5011175;28;20137;-76
2023/09/03 10:05:31;;;;;;;;;;;32.70;79.90;;;;;;5011801;28;19945;-76
2023/09/03 10:07:57;;;;;;;;;;;33.60;79.90;;;;;;5010718;28;19969;-76
2023/09/03 10:10:22;;;;;;;;;;;34.40;79.50;;;;;;5010710;28;19909;-76
2023/09/03 10:12:48;;;;;;;;;;;35.40;79.30;;;;;;4993417;28;19949;-76
2023/09/03 10:15:14;;;;;;;;;;;35.90;78.30;;;;;;5011123;28;20332;-76
2023/09/03 10:17:41;;;;;;;;;;;36.20;78.10;;;;;;5010986;28;19953;-76
2023/09/03 10:20:09;;;;;;;;;;;35.60;77.20;;;;;;5011080;28;19925;-76
2023/09/03 10:22:37;;;;;;;;;;;34.70;76.90;;;;;;5012561;28;19919;-76
2023/09/03 10:25:06;;;;;;;;;;;34.50;78.30;;;;;;5010719;28;19909;-76
2023/09/03 10:27:34;;;;;;;;;;;34.40;78.30;;;;;;4993292;28;19913;-76
2023/09/03 10:30:02;;;;;;;;;;;34.20;78.80;;;;;;5009269;28;19916;-77
2023/09/03 10:32:29;;;;;;;;;;;34.80;79.70;;;;;;5010716;28;19909;-76
2023/09/03 10:34:54;;;;;;;;;;;35.20;79.20;;;;;;4993439;28;20328;-76
2023/09/03 10:37:22;;;;;;;;;;;35.60;78.80;;;;;;4993018;28;20220;-76
2023/09/03 10:39:48;;;;;;;;;;;36.00;78.80;;;;;;4992943;28;19914;-78
2023/09/03 10:42:27;;;;;;;;;;;36.20;78.20;;;;;;4993003;28;19932;-76
2023/09/03 10:44:54;;;;;;;;;;;36.40;78.50;;;;;;5010909;28;19910;-76
2023/09/03 10:47:20;;;;;;;;;;;36.90;78.90;;;;;;5010359;28;19909;-76
2023/09/03 10:49:46;;;;;;;;;;;37.20;78.10;;;;;;5008985;28;20673;-76
2023/09/03 10:52:31;;;;;;;;;;;36.60;77.10;;;;;;5010426;28;19917;-77
2023/09/03 10:55:09;;;;;;;;;;;35.70;76.80;;;;;;5010065;28;19932;-76
2023/09/03 10:57:34;;;;;;;;;;;34.70;77.20;;;;;;5010173;28;20313;-76
2023/09/03 11:00:02;;;;;;;;;;;34.40;78.70;;;;;;5009884;28;20016;-75
2023/09/03 11:02:28;;;;;;;;;;;34.30;78.40;;;;;;5010559;28;19956;-76
2023/09/03 11:05:08;;;;;;;;;;;33.80;77.90;;;;;;5008802;28;19917;-75
2023/09/03 11:07:33;;;;;;;;;;;33.70;78.40;;;;;;5010201;28;20281;-76
2023/09/03 11:10:19;;;;;;;;;;;33.30;78.00;;;;;;5009734;28;19918;-77
2023/09/03 11:12:45;;;;;;;;;;;33.10;78.50;;;;;;5008080;28;20250;-75
2023/09/03 11:15:10;;;;;;;;;;;33.60;79.40;;;;;;4992388;28;19962;-76
2023/09/03 11:17:36;;;;;;;;;;;34.30;79.80;;;;;;5009869;28;20307;-76
2023/09/03 11:20:02;;;;;;;;;;;35.10;79.50;;;;;;4992225;28;19957;-76
2023/09/03 11:22:32;;;;;;;;;;;35.50;78.90;;;;;;5010287;28;20004;-76
2023/09/03 11:24:57;;;;;;;;;;;35.70;78.40;;;;;;4992008;28;19923;-77
2023/09/03 11:27:23;;;;;;;;;;;36.00;78.60;;;;;;4991769;28;19921;-76
2023/09/03 11:29:48;;;;;;;;;;;36.30;78.60;;;;;;4991759;28;20337;-76
2023/09/03 11:32:14;;;;;;;;;;;36.60;78.80;;;;;;4992068;28;19929;-77
2023/09/03 11:34:39;;;;;;;;;;;37.00;78.80;;;;;;4992029;28;20370;-76
2023/09/03 11:37:05;;;;;;;;;;;37.20;78.70;;;;;;4991773;28;20304;-76
2023/09/03 11:39:31;;;;;;;;;;;37.30;78.60;;;;;;4991743;28;19936;-76
2023/09/03 11:41:56;;;;;;;;;;;37.40;78.60;;;;;;4992112;28;19946;-76
2023/09/03 11:44:23;;;;;;;;;;;37.40;78.50;;;;;;4992009;28;20326;-74
2023/09/03 11:46:58;;;;;;;;;;;37.50;78.50;;;;;;4991754;28;19978;-75
2023/09/03 11:49:23;;;;;;;;;;;37.60;78.60;;;;;;5009332;28;19971;-77
2023/09/03 11:51:49;;;;;;;;;;;37.70;78.60;;;;;;5007910;28;19918;-78
2023/09/03 11:54:22;;;;;;;;;;;37.90;78.70;;;;;;4991000;28;19913;-74
2023/09/03 11:56:47;;;;;;;;;;;38.10;78.80;;;;;;5008814;28;19909;-76
2023/09/03 11:59:13;;;;;;;;;;;38.20;78.80;;;;;;4991170;28;20267;-74
2023/09/03 12:01:38;;;;;;;;;;;38.40;79.00;;;;;;5008504;28;20373;-76
2023/09/03 12:04:04;;;;;;;;;;;38.30;78.40;;;;;;4991091;28;20344;-76
2023/09/03 12:06:34;;;;;;;;;;;38.10;78.50;;;;;;5008237;28;20327;-76
2023/09/03 12:08:59;;;;;;;;;;;38.00;78.90;;;;;;4990843;28;19914;-76
2023/09/03 12:11:29;;;;;;;;;;;38.00;79.10;;;;;;5008466;28;20079;-76
2023/09/03 12:13:54;;;;;;;;;;;37.90;79.10;;;;;;5008423;28;19956;-76
2023/09/03 12:16:22;;;;;;;;;;;37.90;79.40;;;;;;5007824;28;20023;-67
2023/09/03 12:18:56;;;;;;;;;;;38.00;79.40;;;;;;5008487;28;19987;-76
2023/09/03 12:21:30;;;;;;;;;;;38.10;79.60;;;;;;5007099;28;20000;-75
2023/09/03 12:23:55;;;;;;;;;;;38.10;79.50;;;;;;5008649;28;19914;-76
2023/09/03 12:26:23;;;;;;;;;;;38.00;79.50;;;;;;5008279;28;19948;-76
2023/09/03 12:28:49;;;;;;;;;;;37.90;79.70;;;;;;4990574;28;20008;-75
2023/09/03 12:31:15;;;;;;;;;;;37.80;79.80;;;;;;5008451;28;20036;-77
2023/09/03 12:33:45;;;;;;;;;;;37.60;79.60;;;;;;4990646;28;20464;-77
2023/09/03 12:36:15;;;;;;;;;;;37.40;79.70;;;;;;5007083;28;20388;-77
2023/09/03 12:38:47;;;;;;;;;;;37.40;80.10;;;;;;5008298;28;20056;-77
2023/09/03 12:41:12;;;;;;;;;;;37.20;80.30;;;;;;5008752;28;20282;-77
2023/09/03 12:43:38;;;;;;;;;;;37.10;79.90;;;;;;5008460;28;20106;-77
2023/09/03 12:46:03;;;;;;;;;;;37.00;79.90;;;;;;4990531;28;19914;-77
2023/09/03 12:48:29;;;;;;;;;;;36.90;79.90;;;;;;5007519;28;19921;-76
2023/09/03 12:50:55;;;;;;;;;;;36.80;80.40;;;;;;5006090;28;19914;-76
2023/09/03 12:53:20;;;;;;;;;;;36.80;80.20;;;;;;4990488;28;19953;-77
2023/09/03 12:55:47;;;;;;;;;;;36.70;80.00;;;;;;4990251;28;19909;-77
2023/09/03 12:58:12;;;;;;;;;;;36.70;79.90;;;;;;5007792;28;19914;-77
2023/09/03 13:00:38;;;;;;;;;;;36.60;79.90;;;;;;5007614;28;19909;-75
2023/09/03 13:03:04;;;;;;;;;;;36.50;80.10;;;;;;5007480;28;20004;-74
2023/09/03 13:05:29;;;;;;;;;;;36.50;79.90;;;;;;5007141;28;20374;-74
2023/09/03 13:07:55;;;;;;;;;;;36.30;79.50;;;;;;5008046;28;19914;-74
2023/09/03 13:10:20;;;;;;;;;;;36.00;79.40;;;;;;5007541;28;19917;-75
2023/09/03 13:12:46;;;;;;;;;;;35.80;79.40;;;;;;4989676;28;20298;-75
2023/09/03 13:15:12;;;;;;;;;;;35.80;79.80;;;;;;4989895;28;19941;-77
2023/09/03 13:17:38;;;;;;;;;;;35.70;79.70;;;;;;4989591;28;19992;-77
2023/09/03 13:20:03;;;;;;;;;;;35.70;79.90;;;;;;5007478;28;19929;-76
2023/09/03 13:22:29;;;;;;;;;;;35.60;79.90;;;;;;5005790;28;20324;-75
2023/09/03 13:24:54;;;;;;;;;;;35.70;80.20;;;;;;4989563;28;20267;-76
2023/09/03 13:27:20;;;;;;;;;;;35.60;80.00;;;;;;5007221;28;19910;-75
2023/09/03 13:29:46;;;;;;;;;;;35.40;79.90;;;;;;4988062;28;20368;-75
2023/09/03 13:32:11;;;;;;;;;;;35.30;80.00;;;;;;4989171;28;19913;-76
2023/09/03 13:34:38;;;;;;;;;;;35.20;80.00;;;;;;5007149;28;19928;-76
2023/09/03 13:37:03;;;;;;;;;;;35.00;79.90;;;;;;4988943;28;19936;-75
2023/09/03 13:39:30;;;;;;;;;;;34.70;79.60;;;;;;4989158;28;20366;-75
2023/09/03 13:41:55;;;;;;;;;;;34.00;79.00;;;;;;5006950;28;20079;-75
2023/09/03 13:44:21;;;;;;;;;;;33.30;78.80;;;;;;5007399;28;20413;-75
2023/09/03 13:46:47;;;;;;;;;;;32.70;78.60;;;;;;4989862;28;19913;-75
2023/09/03 13:49:13;;;;;;;;;;;32.20;78.30;;;;;;4989538;28;20342;-75
2023/09/03 13:51:39;;;;;;;;;;;31.70;78.10;;;;;;4989859;28;19913;-75
2023/09/03 13:54:05;;;;;;;;;;;31.30;78.10;;;;;;5007121;28;19909;-75
2023/09/03 13:56:31;;;;;;;;;;;31.00;78.00;;;;;;4989340;28;19920;-75
2023/09/03 13:58:56;;;;;;;;;;;30.60;78.20;;;;;;5007477;28;19917;-75
2023/09/03 14:01:22;;;;;;;;;;;30.20;77.70;;;;;;4989873;28;19945;-76
2023/09/03 14:03:47;;;;;;;;;;;29.90;77.80;;;;;;5007472;28;19913;-76
2023/09/03 14:06:13;;;;;;;;;;;29.60;77.80;;;;;;5007127;28;19951;-76
2023/09/03 14:08:39;;;;;;;;;;;29.40;78.00;;;;;;4989642;28;19914;-76
2023/09/03 14:11:05;;;;;;;;;;;29.10;77.80;;;;;;5005090;28;19910;-75
2023/09/03 14:13:30;;;;;;;;;;;29.00;78.00;;;;;;5005560;28;19925;-75